Time;durP1;ratioP1;P1;durP2;ratioP2;P2;SDS_P1;SDS_P2;PMS_P1;PMS_P2;Temp;Humidity;BMP_temperature;BMP_pressure;BME280_temperature;BME280_humidity;BME280_pressure;Samples;Min_cycle;Max_cycle;Signal;HPM_P1;HPM_P2
2023/10/05 00:01:20;;;;;;;2.88;0.60;;;13.30;99.90;;;;;;5083397;28;20409;-35
2023/10/05 00:03:51;;;;;;;4.32;1.05;;;13.30;99.90;;;;;;5081101;28;20494;-34
2023/10/05 00:06:23;;;;;;;3.20;0.77;;;13.30;99.90;;;;;;5078356;28;20485;-35
2023/10/05 00:08:50;;;;;;;6.60;0.90;;;13.30;99.90;;;;;;5060693;28;20097;-34
2023/10/05 00:11:24;;;;;;;7.80;1.00;;;13.30;99.90;;;;;;5086027;28;20524;-35
2023/10/05 00:13:50;;;;;;;4.97;0.98;;;13.30;99.90;;;;;;5072840;28;20109;-34
2023/10/05 00:16:22;;;;;;;6.60;0.98;;;13.30;99.90;;;;;;5091164;28;20086;-36
2023/10/05 00:18:52;;;;;;;8.97;1.20;;;13.30;99.90;;;;;;5087604;28;20055;-38
2023/10/05 00:21:19;;;;;;;7.03;0.98;;;13.30;99.90;;;;;;5082194;28;20120;-35
2023/10/05 00:23:50;;;;;;;7.05;0.85;;;13.30;99.90;;;;;;5074867;28;20087;-35
2023/10/05 00:26:16;;;;;;;6.72;0.77;;;13.30;99.90;;;;;;5088437;28;20079;-35
2023/10/05 00:28:53;;;;;;;4.10;0.88;;;13.30;99.90;;;;;;5083974;28;20477;-35
2023/10/05 00:31:23;;;;;;;7.75;1.45;;;13.30;99.90;;;;;;5069428;28;20084;-34
2023/10/05 00:33:55;;;;;;;3.78;0.73;;;13.40;99.90;;;;;;5088865;28;20052;-35
2023/10/05 00:36:23;;;;;;;6.18;0.90;;;13.40;99.90;;;;;;5082104;28;20061;-35
2023/10/05 00:38:49;;;;;;;4.65;0.98;;;13.40;99.90;;;;;;5092370;28;20449;-35
2023/10/05 00:41:15;;;;;;;3.65;0.82;;;13.40;99.90;;;;;;5081843;28;20047;-35
2023/10/05 00:43:40;;;;;;;6.05;0.80;;;13.40;99.90;;;;;;5077706;28;20052;-35
2023/10/05 00:46:07;;;;;;;3.95;0.80;;;13.40;99.90;;;;;;5084532;28;20051;-35
2023/10/05 00:48:37;;;;;;;4.15;1.00;;;13.40;99.90;;;;;;5091333;28;20124;-35
2023/10/05 00:51:14;;;;;;;4.40;0.77;;;13.40;99.90;;;;;;5085837;28;20390;-34
2023/10/05 00:53:41;;;;;;;6.20;1.20;;;13.40;99.90;;;;;;5082763;28;20048;-35
2023/10/05 00:56:12;;;;;;;5.20;1.02;;;13.40;99.90;;;;;;5092241;28;20051;-35
2023/10/05 00:58:44;;;;;;;3.38;1.10;;;13.40;99.90;;;;;;5083770;28;20485;-35
2023/10/05 01:01:17;;;;;;;4.50;0.80;;;13.40;99.90;;;;;;5075997;28;20079;-35
2023/10/05 01:06:49;;;;;;;4.95;1.30;;;13.40;99.90;;;;;;5040341;28;20044;-35
2023/10/05 01:14:46;;;;;;;4.75;0.80;;;13.40;99.90;;;;;;5075910;28;20101;-35
2023/10/05 01:17:12;;;;;;;4.93;0.88;;;13.40;99.90;;;;;;5071261;28;20048;-39
2023/10/05 01:19:39;;;;;;;6.20;1.27;;;13.30;99.90;;;;;;5078627;28;20044;-34
2023/10/05 01:22:13;;;;;;;3.58;0.95;;;13.30;99.90;;;;;;5077059;28;20067;-34
2023/10/05 01:24:38;;;;;;;4.13;1.42;;;13.20;99.90;;;;;;5070846;28;20172;-35
2023/10/05 01:27:04;;;;;;;5.03;1.10;;;13.20;99.90;;;;;;5075053;28;20054;-35
2023/10/05 01:29:30;;;;;;;4.15;0.93;;;13.20;99.90;;;;;;5078446;28;20056;-35
2023/10/05 01:31:56;;;;;;;5.55;1.05;;;13.10;99.90;;;;;;5068358;28;20422;-35
2023/10/05 01:34:22;;;;;;;7.05;0.90;;;13.20;99.90;;;;;;5070827;28;20416;-34
2023/10/05 01:36:48;;;;;;;3.95;1.00;;;13.10;99.90;;;;;;5092634;28;20050;-35
2023/10/05 01:39:18;;;;;;;4.97;1.08;;;13.10;99.90;;;;;;5077725;28;20044;-35
2023/10/05 01:41:47;;;;;;;5.32;1.05;;;13.10;99.90;;;;;;5086177;28;20334;-35
2023/10/05 01:44:14;;;;;;;6.38;1.38;;;13.10;99.90;;;;;;5080086;28;20050;-35
2023/10/05 01:46:40;;;;;;;4.10;1.10;;;13.10;99.90;;;;;;5070902;28;20105;-35
2023/10/05 01:49:06;;;;;;;5.90;0.90;;;13.10;99.90;;;;;;5082422;28;20050;-34
2023/10/05 01:51:31;;;;;;;3.10;1.08;;;13.10;99.90;;;;;;5080151;28;20136;-35
2023/10/05 01:54:05;;;;;;;7.32;1.20;;;13.10;99.90;;;;;;5076269;28;20133;-35
2023/10/05 01:56:32;;;;;;;4.18;0.80;;;13.10;99.90;;;;;;5078895;28;20056;-34
2023/10/05 01:59:00;;;;;;;6.25;1.05;;;13.10;99.90;;;;;;5091284;28;20147;-35
2023/10/05 02:01:28;;;;;;;5.50;1.20;;;13.10;99.90;;;;;;5076626;28;20124;-35
2023/10/05 02:03:54;;;;;;;3.95;0.95;;;13.10;99.90;;;;;;5085723;28;20071;-35
2023/10/05 02:06:20;;;;;;;6.22;1.10;;;13.10;99.90;;;;;;5088240;28;20138;-34
2023/10/05 02:08:46;;;;;;;3.35;0.70;;;13.10;99.90;;;;;;5076565;28;20151;-40
2023/10/05 02:11:23;;;;;;;6.30;1.27;;;13.10;99.90;;;;;;5088901;28;20459;-35
2023/10/05 02:13:49;;;;;;;5.03;1.20;;;13.10;99.90;;;;;;5068610;28;20162;-35
2023/10/05 02:16:17;;;;;;;5.13;1.30;;;13.10;99.90;;;;;;5082077;28;20594;-35
2023/10/05 02:18:43;;;;;;;7.72;1.00;;;13.10;99.90;;;;;;5083305;28;20036;-34
2023/10/05 02:21:17;;;;;;;5.22;0.80;;;13.10;99.90;;;;;;5092028;28;20508;-35
2023/10/05 02:23:44;;;;;;;7.95;1.10;;;13.10;99.90;;;;;;5083028;28;20459;-35
2023/10/05 02:29:14;;;;;;;4.90;1.17;;;13.10;99.90;;;;;;5050642;28;20075;-35
2023/10/05 02:32:05;;;;;;;7.93;1.23;;;13.10;99.90;;;;;;5069565;28;20135;-35
2023/10/05 02:34:44;;;;;;;7.72;1.20;;;13.10;99.90;;;;;;5080176;28;20044;-35
2023/10/05 02:37:11;;;;;;;6.63;1.33;;;13.00;99.90;;;;;;5085271;28;20051;-34
2023/10/05 02:39:41;;;;;;;3.85;1.02;;;13.10;99.90;;;;;;5069426;28;20052;-35
2023/10/05 02:42:14;;;;;;;6.05;1.10;;;13.00;99.90;;;;;;5085581;28;20044;-35
2023/10/05 02:44:42;;;;;;;6.00;1.20;;;13.00;99.90;;;;;;5053742;28;20104;-35
2023/10/05 02:47:08;;;;;;;6.63;1.10;;;13.10;99.90;;;;;;5079295;28;20078;-35
2023/10/05 02:49:39;;;;;;;8.88;1.30;;;13.00;99.90;;;;;;5077426;28;20131;-35
2023/10/05 02:52:06;;;;;;;3.13;0.90;;;12.90;99.90;;;;;;5078808;28;20123;-35
2023/10/05 02:54:32;;;;;;;3.88;0.98;;;12.90;99.90;;;;;;5079927;28;20052;-34
2023/10/05 02:56:58;;;;;;;3.72;0.90;;;12.90;99.90;;;;;;5058822;28;20044;-34
2023/10/05 02:59:26;;;;;;;7.65;1.27;;;12.90;99.90;;;;;;5067132;28;20867;-35
2023/10/05 03:01:54;;;;;;;10.18;1.38;;;12.90;99.90;;;;;;5069638;28;20058;-35
2023/10/05 03:04:22;;;;;;;5.97;0.90;;;12.90;99.90;;;;;;5068313;28;20138;-34
2023/10/05 03:06:49;;;;;;;5.65;0.93;;;12.90;99.90;;;;;;5074971;28;20048;-35
2023/10/05 03:09:16;;;;;;;6.00;0.98;;;12.80;99.90;;;;;;5084509;28;20048;-34
2023/10/05 03:11:52;;;;;;;6.55;1.00;;;12.80;99.90;;;;;;5067733;28;20045;-35
2023/10/05 03:14:18;;;;;;;4.07;1.27;;;12.80;99.90;;;;;;5076005;28;20101;-35
2023/10/05 03:16:44;;;;;;;5.13;1.35;;;12.80;99.90;;;;;;5079775;28;20580;-34
2023/10/05 03:19:15;;;;;;;5.47;1.17;;;12.70;99.90;;;;;;5088378;28;20044;-34
2023/10/05 03:21:41;;;;;;;7.95;1.25;;;12.70;99.90;;;;;;5078982;28;20060;-34
2023/10/05 03:24:13;;;;;;;5.30;0.93;;;12.70;99.90;;;;;;5090158;28;20048;-34
2023/10/05 03:26:40;;;;;;;4.07;0.98;;;12.70;99.90;;;;;;5053906;28;20082;-34
2023/10/05 03:29:07;;;;;;;4.88;1.38;;;12.80;99.90;;;;;;5089297;28;20047;-35
2023/10/05 03:31:37;;;;;;;5.30;1.17;;;12.80;99.90;;;;;;5073818;28;20156;-34
2023/10/05 03:34:06;;;;;;;9.45;1.30;;;12.80;99.90;;;;;;5066071;28;20052;-34
2023/10/05 03:36:33;;;;;;;3.90;1.23;;;12.80;99.90;;;;;;5073821;28;20147;-35
2023/10/05 03:39:03;;;;;;;4.93;1.50;;;12.80;99.90;;;;;;5072673;28;20110;-34
2023/10/05 03:41:29;;;;;;;5.20;1.17;;;12.90;99.90;;;;;;5081944;28;20140;-34
2023/10/05 03:43:55;;;;;;;5.70;1.00;;;12.90;99.90;;;;;;5077905;28;20054;-34
2023/10/05 03:46:25;;;;;;;7.82;1.40;;;12.90;99.90;;;;;;5075916;28;20425;-34
2023/10/05 03:48:52;;;;;;;5.15;1.33;;;12.90;99.90;;;;;;5083696;28;20047;-34
2023/10/05 03:51:18;;;;;;;6.05;0.93;;;12.90;99.90;;;;;;5082967;28;20123;-34
2023/10/05 03:53:48;;;;;;;6.30;1.17;;;12.90;99.90;;;;;;5073229;28;20155;-34
2023/10/05 03:56:19;;;;;;;7.93;1.17;;;12.80;99.90;;;;;;5073148;28;20044;-34
2023/10/05 03:58:46;;;;;;;3.85;1.00;;;12.80;99.90;;;;;;5082166;28;20044;-35
2023/10/05 04:01:12;;;;;;;6.53;1.42;;;12.90;99.90;;;;;;5074573;28;20431;-34
2023/10/05 04:03:39;;;;;;;6.85;1.10;;;12.80;99.90;;;;;;5072738;28;20144;-34
2023/10/05 04:06:17;;;;;;;9.07;1.50;;;12.80;99.90;;;;;;5076175;28;20141;-34
2023/10/05 04:08:45;;;;;;;9.52;1.25;;;12.90;99.90;;;;;;5072269;28;20044;-34
2023/10/05 04:11:11;;;;;;;5.03;1.17;;;12.80;99.90;;;;;;5079314;28;20432;-34
2023/10/05 04:13:38;;;;;;;5.85;1.15;;;12.80;99.90;;;;;;5084056;28;20044;-35
2023/10/05 04:16:08;;;;;;;6.43;1.17;;;12.80;99.90;;;;;;5083268;28;20056;-35
2023/10/05 04:18:33;;;;;;;11.25;1.67;;;12.80;99.90;;;;;;5065454;28;20052;-34
2023/10/05 04:20:59;;;;;;;7.15;1.45;;;12.80;99.90;;;;;;5079696;28;20060;-44
2023/10/05 04:23:28;;;;;;;5.63;1.30;;;12.70;99.90;;;;;;5066894;28;20060;-34
2023/10/05 04:25:57;;;;;;;5.38;1.08;;;12.70;99.90;;;;;;5065038;28;20055;-34
2023/10/05 04:28:32;;;;;;;8.35;1.40;;;12.70;99.90;;;;;;5045924;28;20040;-34
2023/10/05 04:30:57;;;;;;;5.68;1.23;;;12.70;99.90;;;;;;5066348;28;20049;-34
2023/10/05 04:33:26;;;;;;;7.25;1.48;;;12.60;99.90;;;;;;5066253;28;20083;-34
2023/10/05 04:35:52;;;;;;;4.20;1.30;;;12.60;99.90;;;;;;5064218;28;20055;-36
2023/10/05 04:38:22;;;;;;;8.05;1.27;;;12.60;99.90;;;;;;5071449;28;20044;-34
2023/10/05 04:40:51;;;;;;;7.72;1.75;;;12.50;99.90;;;;;;5037510;28;20110;-34
2023/10/05 04:43:19;;;;;;;6.63;1.60;;;12.60;99.90;;;;;;5061389;28;20036;-36
2023/10/05 04:45:46;;;;;;;5.97;1.08;;;12.50;99.90;;;;;;5069153;28;20064;-34
2023/10/05 04:48:12;;;;;;;9.65;1.42;;;12.50;99.90;;;;;;5067691;28;20118;-34
2023/10/05 04:50:41;;;;;;;6.15;1.33;;;12.50;99.90;;;;;;5071852;28;20081;-34
2023/10/05 04:53:09;;;;;;;6.22;1.30;;;12.60;99.90;;;;;;5069187;28;20067;-34
2023/10/05 04:55:41;;;;;;;13.32;2.13;;;12.50;99.90;;;;;;5050212;28;20064;-34
2023/10/05 04:58:24;;;;;;;6.35;1.10;;;12.60;99.90;;;;;;5040568;28;20129;-39
2023/10/05 05:01:14;;;;;;;3.97;1.00;;;12.50;99.90;;;;;;5062150;28;20127;-34
2023/10/05 05:03:48;;;;;;;6.40;1.30;;;12.50;99.90;;;;;;5045755;28;20049;-34
2023/10/05 05:06:14;;;;;;;4.00;1.08;;;12.60;99.90;;;;;;5075890;28;20057;-34
2023/10/05 05:08:40;;;;;;;5.07;1.17;;;12.60;99.90;;;;;;5064170;28;20456;-34
2023/10/05 05:11:26;;;;;;;9.48;1.05;;;12.60;99.90;;;;;;5066320;28;21098;-34
2023/10/05 05:13:52;;;;;;;4.03;1.20;;;12.60;99.90;;;;;;5064592;28;20134;-34
2023/10/05 05:16:18;;;;;;;10.35;1.48;;;12.60;99.90;;;;;;5075378;28;20052;-34
2023/10/05 05:18:44;;;;;;;6.97;1.33;;;12.60;99.90;;;;;;5070356;28;20486;-34
2023/10/05 05:21:11;;;;;;;10.43;1.20;;;12.60;99.90;;;;;;5067265;28;20045;-36
2023/10/05 05:23:39;;;;;;;9.18;1.25;;;12.60;99.90;;;;;;5066469;28;20062;-34
2023/10/05 05:26:08;;;;;;;6.63;1.20;;;12.60;99.90;;;;;;5063517;28;20068;-34
2023/10/05 05:28:34;;;;;;;5.53;1.00;;;12.70;99.90;;;;;;5055313;28;20048;-35
2023/10/05 05:31:16;;;;;;;4.97;1.50;;;12.70;99.90;;;;;;5046732;28;20072;-35
2023/10/05 05:33:45;;;;;;;3.43;1.10;;;12.70;99.90;;;;;;5042729;28;20649;-34
2023/10/05 05:36:12;;;;;;;7.25;1.20;;;12.70;99.90;;;;;;5063185;28;20380;-34
2023/10/05 05:38:47;;;;;;;3.88;1.15;;;12.70;99.90;;;;;;5066306;28;20084;-34
2023/10/05 05:41:16;;;;;;;5.60;1.33;;;12.80;99.90;;;;;;5060754;28;20159;-34
2023/10/05 05:43:42;;;;;;;4.00;1.08;;;12.80;99.90;;;;;;5059143;28;20186;-34
2023/10/05 05:46:12;;;;;;;13.48;1.67;;;12.80;99.90;;;;;;5065693;28;20058;-34
2023/10/05 05:48:39;;;;;;;7.25;1.50;;;12.80;99.90;;;;;;5068877;28;20048;-34
2023/10/05 05:51:08;;;;;;;5.78;1.25;;;12.80;99.90;;;;;;5065647;28;20067;-34
2023/10/05 05:53:34;;;;;;;6.63;1.23;;;12.80;99.90;;;;;;5062065;28;20044;-34
2023/10/05 05:56:03;;;;;;;7.25;1.92;;;12.80;99.90;;;;;;5065945;28;20531;-34
2023/10/05 05:58:28;;;;;;;8.10;1.88;;;12.80;99.90;;;;;;5058781;28;20052;-35
2023/10/05 06:00:55;;;;;;;4.50;1.30;;;12.90;99.90;;;;;;5053474;28;20613;-35
2023/10/05 06:03:21;;;;;;;4.80;1.20;;;12.90;99.90;;;;;;5053551;28;20040;-34
2023/10/05 06:05:50;;;;;;;4.40;1.45;;;12.90;99.90;;;;;;5055908;28;20064;-35
2023/10/05 06:08:16;;;;;;;6.45;1.20;;;12.90;99.90;;;;;;5039278;28;20075;-42
2023/10/05 06:10:43;;;;;;;7.03;1.23;;;12.90;99.90;;;;;;5058121;28;20162;-34
2023/10/05 06:13:11;;;;;;;7.25;1.10;;;13.00;99.90;;;;;;5055737;28;20506;-34
2023/10/05 06:15:38;;;;;;;5.82;1.40;;;13.00;99.90;;;;;;5056270;28;20045;-35
2023/10/05 06:18:03;;;;;;;6.03;1.35;;;13.00;99.90;;;;;;5055556;28;20537;-34
2023/10/05 06:20:30;;;;;;;3.80;1.00;;;13.00;99.90;;;;;;5059626;28;20130;-35
2023/10/05 06:22:55;;;;;;;5.63;1.40;;;13.10;99.90;;;;;;5061034;28;20488;-34
2023/10/05 06:25:21;;;;;;;7.07;1.50;;;13.10;99.90;;;;;;5086768;28;20048;-34
2023/10/05 06:27:47;;;;;;;4.82;1.13;;;13.10;99.90;;;;;;5079465;28;20097;-34
2023/10/05 06:30:14;;;;;;;5.72;1.20;;;13.10;99.90;;;;;;5079698;28;29863;-34
2023/10/05 06:32:40;;;;;;;5.30;1.13;;;13.10;99.90;;;;;;5077627;28;20482;-34
2023/10/05 06:35:09;;;;;;;9.85;1.67;;;13.20;99.90;;;;;;5073334;28;20071;-34
2023/10/05 06:37:37;;;;;;;4.45;1.20;;;13.20;99.90;;;;;;5084217;28;20488;-34
2023/10/05 06:40:09;;;;;;;7.88;1.35;;;13.20;99.90;;;;;;5081417;28;20493;-34
2023/10/05 06:42:37;;;;;;;9.13;1.63;;;13.20;99.90;;;;;;5067176;28;20478;-34
2023/10/05 06:45:03;;;;;;;10.50;1.48;;;13.30;99.90;;;;;;5078194;28;20106;-34
2023/10/05 06:47:38;;;;;;;9.27;1.40;;;13.30;99.90;;;;;;5070494;28;20122;-34
2023/10/05 06:50:08;;;;;;;5.53;1.92;;;13.30;99.90;;;;;;5066994;28;20637;-34
2023/10/05 06:52:44;;;;;;;4.22;1.33;;;13.40;99.90;;;;;;5074081;28;20051;-34
2023/10/05 06:55:14;;;;;;;6.32;1.75;;;13.30;99.90;;;;;;5074691;28;20054;-35
2023/10/05 06:57:43;;;;;;;6.95;1.25;;;13.40;99.90;;;;;;5077868;28;20049;-35
2023/10/05 07:00:16;;;;;;;6.65;1.42;;;13.40;99.90;;;;;;5068696;28;20071;-35
2023/10/05 07:02:46;;;;;;;3.90;1.60;;;13.50;99.90;;;;;;5082691;28;20091;-34
2023/10/05 07:05:12;;;;;;;6.82;1.50;;;13.40;99.90;;;;;;5061795;28;20495;-34
2023/10/05 07:07:38;;;;;;;5.40;1.30;;;13.50;99.90;;;;;;5081367;28;20452;-35
2023/10/05 07:10:06;;;;;;;6.93;1.67;;;13.50;99.90;;;;;;5075132;28;20177;-34
2023/10/05 07:12:35;;;;;;;5.28;1.25;;;13.50;99.90;;;;;;5070590;28;20106;-36
2023/10/05 07:15:01;;;;;;;8.93;1.60;;;13.60;99.90;;;;;;5081354;28;20050;-34
2023/10/05 07:17:29;;;;;;;10.23;1.60;;;13.60;99.90;;;;;;5074773;28;20105;-34
2023/10/05 07:19:54;;;;;;;4.10;1.10;;;13.60;99.90;;;;;;5082496;28;20446;-34
2023/10/05 07:22:23;;;;;;;4.85;1.67;;;13.70;99.90;;;;;;5076696;28;20558;-34
2023/10/05 07:24:49;;;;;;;5.38;1.50;;;13.70;99.90;;;;;;5075363;28;20047;-34
2023/10/05 07:27:16;;;;;;;7.00;1.20;;;13.80;99.90;;;;;;5080897;28;20509;-34
2023/10/05 07:29:45;;;;;;;5.53;1.55;;;13.80;99.90;;;;;;5076674;28;20051;-35
2023/10/05 07:32:15;;;;;;;8.23;1.58;;;13.90;99.90;;;;;;5075794;28;20193;-35
2023/10/05 07:34:41;;;;;;;6.25;1.33;;;13.90;99.90;;;;;;5070979;28;20476;-34
2023/10/05 07:37:10;;;;;;;5.68;1.65;;;14.00;99.90;;;;;;5075107;28;20056;-35
2023/10/05 07:39:37;;;;;;;8.18;1.90;;;14.00;99.90;;;;;;5073036;28;20105;-35
2023/10/05 07:42:03;;;;;;;5.40;1.33;;;14.10;99.90;;;;;;5064066;28;20158;-35
2023/10/05 07:44:29;;;;;;;9.23;1.98;;;14.10;99.90;;;;;;5074837;28;20133;-35
2023/10/05 07:46:54;;;;;;;7.35;1.40;;;14.20;99.90;;;;;;5070863;28;20053;-34
2023/10/05 07:49:20;;;;;;;6.55;1.27;;;14.20;99.90;;;;;;5079347;28;20059;-34
2023/10/05 07:51:46;;;;;;;8.07;1.45;;;14.20;99.90;;;;;;5055024;28;20070;-34
2023/10/05 07:54:12;;;;;;;6.53;1.40;;;14.30;99.90;;;;;;5080816;28;20409;-35
2023/10/05 07:56:37;;;;;;;6.43;0.95;;;14.40;99.90;;;;;;5079474;28;20048;-35
2023/10/05 07:59:04;;;;;;;9.23;1.30;;;14.30;99.90;;;;;;5087000;28;20044;-35
2023/10/05 08:01:29;;;;;;;8.48;1.67;;;14.40;99.90;;;;;;5082887;28;20574;-34
2023/10/05 08:03:55;;;;;;;5.88;1.65;;;14.40;99.90;;;;;;5077283;28;20052;-36
2023/10/05 08:06:20;;;;;;;9.70;1.88;;;14.50;99.90;;;;;;5073429;28;20054;-36
2023/10/05 08:08:47;;;;;;;8.80;1.88;;;14.50;99.90;;;;;;5074002;28;20044;-35
2023/10/05 08:11:15;;;;;;;6.47;1.63;;;14.50;99.90;;;;;;5092548;28;20059;-35
2023/10/05 08:13:44;;;;;;;8.75;1.80;;;14.50;99.90;;;;;;5082389;28;20035;-35
2023/10/05 08:16:12;;;;;;;6.40;1.52;;;14.60;99.90;;;;;;5091155;28;20154;-35
2023/10/05 08:18:38;;;;;;;6.15;1.70;;;14.70;99.90;;;;;;5076430;28;20056;-35
2023/10/05 08:21:07;;;;;;;6.93;1.25;;;14.70;99.90;;;;;;5056468;28;20044;-35
2023/10/05 08:23:33;;;;;;;7.15;1.33;;;14.70;99.90;;;;;;5078771;28;20071;-36
2023/10/05 08:25:59;;;;;;;5.80;1.20;;;14.70;99.90;;;;;;5070812;28;20538;-36
2023/10/05 08:28:25;;;;;;;5.75;1.10;;;14.80;99.90;;;;;;5079936;28;20138;-36
2023/10/05 08:31:07;;;;;;;9.70;1.67;;;14.80;99.90;;;;;;5084285;28;20074;-36
2023/10/05 08:33:39;;;;;;;8.98;1.60;;;14.80;99.90;;;;;;5078571;28;20048;-35
2023/10/05 08:36:12;;;;;;;6.45;1.58;;;14.90;99.90;;;;;;5083558;28;20413;-35
2023/10/05 08:38:38;;;;;;;7.10;1.42;;;14.90;99.90;;;;;;5071466;28;20064;-35
2023/10/05 08:41:07;;;;;;;10.88;1.83;;;15.00;99.90;;;;;;5084667;28;20138;-35
2023/10/05 08:43:40;;;;;;;7.45;1.75;;;15.10;99.90;;;;;;5081905;28;20190;-36
2023/10/05 08:46:12;;;;;;;5.00;1.30;;;15.20;99.90;;;;;;5078459;28;20529;-35
2023/10/05 08:48:38;;;;;;;6.57;1.60;;;15.30;99.90;;;;;;5076137;28;20040;-35
2023/10/05 08:51:15;;;;;;;8.05;1.65;;;15.40;99.90;;;;;;5086715;28;20069;-35
2023/10/05 08:53:57;;;;;;;8.98;1.50;;;15.40;99.90;;;;;;5090860;28;20497;-34
2023/10/05 08:56:24;;;;;;;6.97;2.10;;;15.50;99.90;;;;;;5083526;28;20060;-38
2023/10/05 08:58:52;;;;;;;9.77;1.98;;;15.50;99.90;;;;;;5065726;28;20108;-34
2023/10/05 09:01:31;;;;;;;6.10;1.20;;;15.60;99.90;;;;;;5077156;28;20040;-44
2023/10/05 09:06:55;;;;;;;6.93;1.50;;;15.60;99.90;;;;;;5072462;28;20059;-35
2023/10/05 09:09:38;;;;;;;12.65;1.48;;;15.60;99.90;;;;;;5082138;28;20079;-35
2023/10/05 09:12:46;;;;;;;9.15;1.60;;;15.60;99.90;;;;;;5076391;28;20043;-35
2023/10/05 09:15:21;;;;;;;13.02;2.25;;;15.80;99.90;;;;;;5081193;28;20040;-35
2023/10/05 09:17:57;;;;;;;8.73;1.45;;;15.80;99.90;;;;;;5085489;28;20101;-35
2023/10/05 09:20:35;;;;;;;5.55;1.55;;;15.90;99.90;;;;;;5088693;28;20047;-35
2023/10/05 09:23:07;;;;;;;6.22;1.45;;;15.90;99.90;;;;;;5072940;28;20053;-34
2023/10/05 09:25:44;;;;;;;7.75;1.55;;;15.90;99.90;;;;;;5068226;28;20068;-35
2023/10/05 09:28:16;;;;;;;6.72;1.27;;;15.90;99.90;;;;;;5061791;28;20045;-34
2023/10/05 09:31:07;;;;;;;8.93;1.97;;;16.00;99.90;;;;;;5061713;28;20063;-34
2023/10/05 09:33:36;;;;;;;10.55;1.40;;;16.10;99.90;;;;;;5067977;28;20318;-35
2023/10/05 09:36:22;;;;;;;11.10;1.95;;;16.10;99.90;;;;;;5054441;28;20571;-35
2023/10/05 09:38:51;;;;;;;4.32;1.27;;;16.10;99.90;;;;;;5065921;28;20053;-35
2023/10/05 09:41:18;;;;;;;8.30;1.42;;;16.10;99.90;;;;;;5069247;28;20048;-34
2023/10/05 09:43:44;;;;;;;10.63;1.83;;;16.10;99.90;;;;;;5067458;28;20068;-34
2023/10/05 09:46:11;;;;;;;6.43;1.55;;;16.10;99.90;;;;;;5046389;28;20052;-35
2023/10/05 09:48:38;;;;;;;8.60;1.58;;;16.10;99.90;;;;;;5067053;28;20048;-35
2023/10/05 09:51:09;;;;;;;9.65;2.53;;;16.20;99.90;;;;;;5043870;28;20183;-45
2023/10/05 09:53:35;;;;;;;11.98;2.13;;;16.10;99.90;;;;;;5067306;28;20091;-35
2023/10/05 09:56:01;;;;;;;5.72;1.35;;;16.10;99.90;;;;;;5068441;28;20079;-35
2023/10/05 09:58:28;;;;;;;6.28;1.30;;;16.10;99.90;;;;;;5063675;28;20052;-35
2023/10/05 10:00:56;;;;;;;9.63;1.38;;;16.10;99.90;;;;;;5065962;28;20048;-36
2023/10/05 10:03:23;;;;;;;6.00;1.25;;;16.10;99.90;;;;;;5065312;28;20044;-34
2023/10/05 10:06:08;;;;;;;7.60;1.45;;;16.00;99.90;;;;;;5064883;28;20056;-34
2023/10/05 10:08:42;;;;;;;7.32;1.40;;;15.90;99.90;;;;;;5066763;28;20052;-34
2023/10/05 10:11:18;;;;;;;11.98;1.92;;;15.90;99.90;;;;;;5064723;28;20051;-34
2023/10/05 10:14:13;;;;;;;11.40;1.38;;;15.90;99.90;;;;;;5063189;28;20044;-34
2023/10/05 10:16:43;;;;;;;6.30;1.20;;;15.90;99.90;;;;;;5062472;28;20049;-34
2023/10/05 10:19:20;;;;;;;6.70;1.10;;;16.00;99.90;;;;;;5071164;28;20461;-37
2023/10/05 10:21:57;;;;;;;8.00;1.50;;;16.00;99.90;;;;;;5072088;28;20052;-34
2023/10/05 10:24:28;;;;;;;8.20;1.35;;;16.00;99.90;;;;;;5064891;28;20521;-35
2023/10/05 10:27:07;;;;;;;7.72;1.42;;;16.00;99.90;;;;;;5042244;28;20189;-34
2023/10/05 10:29:45;;;;;;;6.22;1.10;;;16.10;99.90;;;;;;5061036;28;20051;-34
2023/10/05 10:32:18;;;;;;;7.00;1.50;;;16.20;99.90;;;;;;5068404;28;20056;-34
2023/10/05 10:35:09;;;;;;;9.10;1.98;;;16.30;99.90;;;;;;5059359;28;20139;-36
2023/10/05 10:37:44;;;;;;;7.57;1.27;;;16.40;99.90;;;;;;5064140;28;20044;-34
2023/10/05 10:40:33;;;;;;;6.18;1.30;;;16.50;99.90;;;;;;5064869;28;20498;-34
2023/10/05 10:45:33;;;;;;;7.30;1.55;;;16.70;99.90;;;;;;5058962;28;20059;-38
2023/10/05 10:47:59;;;;;;;5.40;1.02;;;16.80;99.90;;;;;;5063902;28;20052;-35
2023/10/05 10:50:35;;;;;;;8.35;1.50;;;16.80;99.90;;;;;;5064731;28;20052;-38
2023/10/05 10:53:12;;;;;;;8.55;1.77;;;16.80;99.90;;;;;;5054506;28;20909;-36
2023/10/05 10:55:46;;;;;;;4.57;1.05;;;16.70;99.90;;;;;;5049902;28;20506;-34
2023/10/05 10:58:14;;;;;;;4.43;1.20;;;16.80;99.90;;;;;;5065816;28;20043;-35
2023/10/05 11:00:56;;;;;;;5.95;1.27;;;16.80;99.90;;;;;;5072389;28;20075;-36
2023/10/05 11:03:27;;;;;;;7.82;1.23;;;16.80;99.90;;;;;;5066530;28;20052;-34
2023/10/05 11:05:57;;;;;;;7.28;1.20;;;16.90;99.90;;;;;;5067788;28;20055;-36
2023/10/05 11:08:24;;;;;;;7.05;1.25;;;16.90;99.90;;;;;;5061910;28;20460;-34
2023/10/05 11:10:59;;;;;;;5.03;1.15;;;16.90;99.90;;;;;;5065823;28;20052;-35
2023/10/05 11:13:25;;;;;;;5.57;1.40;;;16.90;99.90;;;;;;5065593;28;20049;-35
2023/10/05 11:15:58;;;;;;;7.82;1.52;;;16.80;99.90;;;;;;5066289;28;20456;-34
2023/10/05 11:18:39;;;;;;;11.52;2.53;;;16.80;99.90;;;;;;5064844;28;20368;-35
2023/10/05 11:21:18;;;;;;;9.80;1.35;;;16.80;99.90;;;;;;5068500;28;20048;-35
2023/10/05 11:23:48;;;;;;;9.15;1.52;;;16.80;99.90;;;;;;5065315;28;20135;-35
2023/10/05 11:26:33;;;;;;;9.90;1.75;;;16.80;99.90;;;;;;5066085;28;20074;-35
2023/10/05 11:28:59;;;;;;;8.13;1.20;;;16.80;99.90;;;;;;5069003;28;20094;-35
2023/10/05 11:31:33;;;;;;;8.55;1.63;;;16.80;99.90;;;;;;5065033;28;20049;-35
2023/10/05 11:34:03;;;;;;;7.57;1.30;;;16.80;99.90;;;;;;5063736;28;20051;-35
2023/10/05 11:36:33;;;;;;;7.45;1.38;;;16.70;99.90;;;;;;5064491;28;20135;-35
2023/10/05 11:38:59;;;;;;;7.68;1.60;;;16.70;99.90;;;;;;5052395;28;20452;-35
2023/10/05 11:41:29;;;;;;;6.55;1.40;;;16.70;99.90;;;;;;5065697;28;20048;-35
2023/10/05 11:43:56;;;;;;;8.82;1.35;;;16.80;99.90;;;;;;5070640;28;20052;-35
2023/10/05 11:46:26;;;;;;;6.25;1.40;;;16.80;99.90;;;;;;5063596;28;20532;-35
2023/10/05 11:48:55;;;;;;;6.60;1.40;;;16.80;99.90;;;;;;5069968;28;20498;-35
2023/10/05 11:51:40;;;;;;;5.18;1.20;;;16.90;99.90;;;;;;5065702;28;20076;-35
2023/10/05 11:54:07;;;;;;;8.00;1.38;;;16.80;99.90;;;;;;5063370;28;20102;-35
2023/10/05 11:56:33;;;;;;;8.38;1.48;;;16.70;99.90;;;;;;5056092;28;20052;-35
2023/10/05 11:59:02;;;;;;;8.50;1.30;;;16.50;99.90;;;;;;5063463;28;20048;-35
2023/10/05 12:01:27;;;;;;;8.75;1.50;;;16.50;99.90;;;;;;5058716;28;20125;-35
2023/10/05 12:03:55;;;;;;;5.97;1.55;;;16.50;99.90;;;;;;5065262;28;20553;-35
2023/10/05 12:06:25;;;;;;;7.05;1.52;;;16.60;99.90;;;;;;5065691;28;20049;-35
2023/10/05 12:09:00;;;;;;;6.07;1.33;;;16.60;99.90;;;;;;5060003;28;21243;-34
2023/10/05 12:11:29;;;;;;;5.88;1.50;;;16.60;99.90;;;;;;5067899;28;20049;-35
2023/10/05 12:13:58;;;;;;;7.13;1.35;;;16.70;99.90;;;;;;5066659;28;20056;-45
2023/10/05 12:16:27;;;;;;;7.55;1.38;;;16.80;99.90;;;;;;5065050;28;21373;-35
2023/10/05 12:18:54;;;;;;;4.95;1.55;;;16.90;99.90;;;;;;5075726;28;20932;-35
2023/10/05 12:21:22;;;;;;;10.38;1.80;;;17.30;99.90;;;;;;5069595;28;20049;-40
2023/10/05 12:23:48;;;;;;;10.02;1.70;;;17.70;99.90;;;;;;5062169;28;20057;-35
2023/10/05 12:26:15;;;;;;;8.30;1.20;;;17.90;99.90;;;;;;5090149;28;20059;-35
2023/10/05 12:28:41;;;;;;;3.70;1.20;;;18.30;99.90;;;;;;5086428;28;20060;-35
2023/10/05 12:31:09;;;;;;;5.45;1.33;;;18.70;99.90;;;;;;5087052;28;20139;-35
2023/10/05 12:33:41;;;;;;;9.75;1.50;;;18.70;99.90;;;;;;5083100;28;20048;-37
2023/10/05 12:36:08;;;;;;;4.20;0.85;;;18.70;99.90;;;;;;5081259;28;20083;-35
2023/10/05 12:38:35;;;;;;;6.90;1.05;;;18.50;99.90;;;;;;5083633;28;20040;-35
2023/10/05 12:41:12;;;;;;;7.15;1.00;;;18.30;99.90;;;;;;5088744;28;20047;-35
2023/10/05 12:43:40;;;;;;;5.63;1.05;;;18.40;99.90;;;;;;5084491;28;20063;-35
2023/10/05 12:46:10;;;;;;;4.32;1.13;;;18.40;99.90;;;;;;5081872;28;20135;-35
2023/10/05 12:48:39;;;;;;;6.05;1.45;;;18.30;99.90;;;;;;5078781;28;20083;-41
2023/10/05 12:51:06;;;;;;;6.28;1.02;;;18.30;99.90;;;;;;5074283;28;20131;-35
2023/10/05 12:53:38;;;;;;;5.03;1.00;;;18.70;99.90;;;;;;5074374;28;20083;-35
2023/10/05 12:56:04;;;;;;;2.90;0.80;;;18.90;99.90;;;;;;5069746;28;20540;-35
2023/10/05 12:58:32;;;;;;;4.00;0.90;;;19.30;99.90;;;;;;5078966;28;20048;-49
2023/10/05 13:01:07;;;;;;;6.43;1.00;;;19.80;99.90;;;;;;5048189;28;20056;-35
2023/10/05 13:03:34;;;;;;;5.07;0.80;;;20.20;99.90;;;;;;5079454;28;20412;-35
2023/10/05 13:06:06;;;;;;;5.70;1.17;;;20.60;99.90;;;;;;5077736;28;20039;-35
2023/10/05 13:08:32;;;;;;;4.57;1.05;;;20.60;99.90;;;;;;5083612;28;20498;-35
2023/10/05 13:10:58;;;;;;;5.47;1.00;;;20.50;99.90;;;;;;5084158;28;20051;-35
2023/10/05 13:13:25;;;;;;;9.00;2.08;;;20.40;99.90;;;;;;5082670;28;20060;-35
2023/10/05 13:15:52;;;;;;;5.35;0.95;;;20.40;99.90;;;;;;5083094;28;20543;-35